Etusivu
METAR-TAF:

METAR-TAF

Lentoasemat :

Lyndonville, Vermont, Yhdysvallat

Leveyspiiri: 44-34-09N, Pituuspiiri: 072-01-05W, korkeus merenpinnasta: 362 m

Tämänhetkinen sää

Tämä raportti tehtiin 18 minuuttia sitten, kello 20.15 UTC
Tuuli 12 kn lounaasta puuskistuen 19 kn:hen, vaihdellen etelän/lounaan ja lännen välillä
Lämpötila 11°C
Kosteus 24%
Ilmanpaine 1007 hPa
Näkyvyys: 16.1 km
selkeää

METAR: KCDA 072015Z AUTO 23012G19KT 210V270 10SM CLR 11/M09 A2974 RMK AO2 T01121093

Aika: 16:33 (20:33 UTC)


TAF: puuttuu

Säähavainnot ja -ennusteet yli 4000 lentoasemalta (METAR- ja TAF-raportit).

Käytössä olevat sääasemat on merkitty karttaan keltaisilla ja punaisilla pisteillä.

Aseta hiiri pisteen päälle nähdäksesi sääaseman nimen.

Klikkaa sitten nähdäksesi säähavainnot ja -ennusteet.

Kartan vaihtaminen: klikkaa mustalla rastilla varustettuja vihreitä pisteitä, niin voit zoomata sisään; viivalla varustettua vihreää pistettä, niin voit zoomata ulos tai vihreitä nuolia, niin pääset viereisille kartoille.


METAR-TAF: